Time;durP1;ratioP1;P1;durP2;ratioP2;P2;SDS_P1;SDS_P2;PMS_P1;PMS_P2;Temp;Humidity;BMP_temperature;BMP_pressure;BME280_temperature;BME280_humidity;BME280_pressure;Samples;Min_cycle;Max_cycle;Signal;HPM_P1;HPM_P2
2021/12/30 00:02:05;;;;;;;96.38;59.05;;;;;;;3.65;100.00;99111.31;5074000;28;20448;-79
2021/12/30 00:04:30;;;;;;;89.05;55.72;;;;;;;3.50;100.00;99079.94;5072484;28;20028;-80
2021/12/30 00:06:56;;;;;;;84.10;51.45;;;;;;;3.57;100.00;99095.22;5072684;28;20520;-80
2021/12/30 00:09:21;;;;;;;81.45;51.00;;;;;;;3.63;100.00;99105.38;5073971;28;20414;-79
2021/12/30 00:11:48;;;;;;;80.80;51.45;;;;;;;3.65;100.00;99107.00;5072233;28;20028;-79
2021/12/30 00:14:14;;;;;;;92.75;54.88;;;;;;;3.70;100.00;99109.44;5072388;28;20468;-80
2021/12/30 00:16:39;;;;;;;85.45;52.13;;;;;;;3.60;100.00;99090.81;5072281;28;20029;-79
2021/12/30 00:19:05;;;;;;;82.28;51.65;;;;;;;3.68;100.00;99112.06;5072485;28;20036;-79
2021/12/30 00:21:30;;;;;;;75.22;47.92;;;;;;;3.71;100.00;99114.56;5073456;28;20039;-79
2021/12/30 00:23:56;;;;;;;68.70;45.20;;;;;;;3.57;100.00;99077.19;5072290;28;20491;-80
2021/12/30 00:26:21;;;;;;;70.80;44.83;;;;;;;3.55;100.00;99084.97;5071794;28;20016;-79
2021/12/30 00:28:47;;;;;;;68.80;44.22;;;;;;;3.72;100.00;99113.69;5073136;28;20451;-80
2021/12/30 00:31:13;;;;;;;64.13;41.08;;;;;;;3.73;100.00;99117.94;5073618;28;20164;-79
2021/12/30 00:33:38;;;;;;;71.25;43.53;;;;;;;3.72;100.00;99120.56;5073288;28;20033;-79
2021/12/30 00:36:08;;;;;;;71.10;43.80;;;;;;;3.71;100.00;99114.56;5072070;28;20107;-79
2021/12/30 00:38:38;;;;;;;77.28;44.00;;;;;;;3.68;100.00;99095.78;5073089;28;20029;-79
2021/12/30 00:41:04;;;;;;;71.60;44.80;;;;;;;3.68;100.00;99094.03;5073079;28;20487;-79
2021/12/30 00:43:30;;;;;;;76.07;48.47;;;;;;;3.70;100.00;99099.13;5072036;28;20035;-79
2021/12/30 00:45:55;;;;;;;74.60;45.47;;;;;;;3.63;100.00;99088.19;5072997;28;20059;-79
2021/12/30 00:48:21;;;;;;;64.03;42.25;;;;;;;3.71;100.00;99093.13;5050585;28;20404;-79
2021/12/30 00:50:48;;;;;;;58.92;37.75;;;;;;;3.51;100.00;99070.47;5033649;28;20088;-79
2021/12/30 00:53:14;;;;;;;57.05;37.00;;;;;;;3.63;100.00;99093.31;5050558;28;20041;-79
2021/12/30 00:55:40;;;;;;;64.00;42.58;;;;;;;3.64;100.00;99091.59;5050247;28;20031;-80
2021/12/30 00:58:07;;;;;;;66.82;45.35;;;;;;;3.52;100.00;99074.75;5050498;28;20455;-79
2021/12/30 01:00:34;;;;;;;58.97;37.20;;;;;;;3.56;100.00;99081.50;5033605;28;20029;-79
2021/12/30 01:02:59;;;;;;;56.22;39.35;;;;;;;3.52;100.00;99074.75;5050455;28;20033;-79
2021/12/30 01:05:25;;;;;;;57.15;35.38;;;;;;;3.49;100.00;99069.66;5050432;28;20036;-79
2021/12/30 01:07:51;;;;;;;50.42;36.25;;;;;;;3.53;100.00;99073.84;5050068;28;20133;-79
2021/12/30 01:10:20;;;;;;;51.97;35.38;;;;;;;3.52;100.00;99082.47;5050191;28;20060;-80
2021/12/30 01:12:46;;;;;;;47.40;32.50;;;;;;;3.46;100.00;99070.63;5033095;28;20070;-79
2021/12/30 01:15:17;;;;;;;49.97;33.08;;;;;;;3.49;100.00;99093.69;5033498;28;20112;-79
2021/12/30 01:17:58;;;;;;;45.88;31.33;;;;;;;3.44;100.00;99086.97;5049940;28;20543;-79
2021/12/30 01:20:23;;;;;;;42.13;29.00;;;;;;;3.49;100.00;99091.09;5068532;28;20040;-79
2021/12/30 01:22:51;;;;;;;43.88;30.00;;;;;;;3.55;100.00;99102.16;5071983;28;20033;-79
2021/12/30 01:25:17;;;;;;;42.97;29.40;;;;;;;3.55;100.00;99104.72;5072254;28;20487;-79
2021/12/30 01:27:43;;;;;;;44.60;31.70;;;;;;;3.53;100.00;99107.31;5072261;28;20025;-79
2021/12/30 01:30:16;;;;;;;50.20;32.58;;;;;;;3.53;100.00;99111.63;5071911;28;20025;-80
2021/12/30 01:32:42;;;;;;;44.80;30.38;;;;;;;3.46;100.00;99101.50;5070751;28;20040;-79
2021/12/30 01:35:11;;;;;;;48.90;30.77;;;;;;;3.45;100.00;99110.09;5072180;28;20029;-79
2021/12/30 01:37:37;;;;;;;48.45;32.60;;;;;;;3.35;100.00;99098.34;5071265;28;20039;-79
2021/12/30 01:40:06;;;;;;;53.17;32.10;;;;;;;3.33;100.00;99099.28;5072258;28;20029;-79
2021/12/30 01:42:33;;;;;;;44.13;28.05;;;;;;;3.45;100.00;99117.81;5072053;28;20042;-79
2021/12/30 01:44:58;;;;;;;48.25;28.73;;;;;;;3.45;100.00;99117.81;5070721;28;20024;-79
2021/12/30 01:47:24;;;;;;;43.35;29.05;;;;;;;3.45;100.00;99117.81;5072059;28;20435;-79
2021/12/30 01:49:51;;;;;;;45.85;32.17;;;;;;;3.44;100.00;99113.56;5071751;28;20100;-79
2021/12/30 01:52:17;;;;;;;51.22;34.33;;;;;;;3.50;100.00;99118.56;5070889;28;20595;-79
2021/12/30 01:54:42;;;;;;;50.47;31.15;;;;;;;3.45;100.00;99114.41;5072191;28;20032;-79
2021/12/30 01:57:08;;;;;;;44.15;30.23;;;;;;;3.47;100.00;99121.22;5071956;28;20430;-79
2021/12/30 01:59:33;;;;;;;43.25;30.45;;;;;;;3.45;100.00;99115.25;5071945;28;20130;-79
2021/12/30 02:01:59;;;;;;;45.22;29.17;;;;;;;3.56;100.00;99140.72;5070273;28;20028;-79
2021/12/30 02:04:26;;;;;;;47.38;32.42;;;;;;;3.50;100.00;99125.44;5070535;28;20064;-79
2021/12/30 02:06:52;;;;;;;62.45;41.00;;;;;;;3.48;100.00;99130.63;5071568;28;20074;-80
2021/12/30 02:09:19;;;;;;;57.00;37.20;;;;;;;3.62;100.00;99150.00;5070705;28;20381;-80
2021/12/30 02:11:45;;;;;;;80.15;51.75;;;;;;;3.47;100.00;99120.38;5071672;28;20028;-80
2021/12/30 02:14:11;;;;;;;82.07;52.10;;;;;;;3.61;100.00;99153.47;5071960;28;20101;-79
2021/12/30 02:16:37;;;;;;;68.53;45.85;;;;;;;3.58;100.00;99149.25;5071559;28;20454;-79
2021/12/30 02:19:03;;;;;;;53.33;33.78;;;;;;;3.53;100.00;99137.38;5070502;28;20029;-80
2021/12/30 02:21:28;;;;;;;49.38;33.53;;;;;;;3.65;100.00;99155.91;5071553;28;20024;-80
2021/12/30 02:23:54;;;;;;;46.22;31.48;;;;;;;3.64;100.00;99161.97;5070476;28;20021;-79
2021/12/30 02:26:20;;;;;;;47.33;30.25;;;;;;;3.58;100.00;99141.53;5071805;28;20485;-79
2021/12/30 02:28:46;;;;;;;47.92;30.13;;;;;;;3.57;100.00;99136.41;5071492;28;20024;-79
2021/12/30 02:31:21;;;;;;;43.22;29.92;;;;;;;3.54;100.00;99136.47;5070337;28;20147;-79
2021/12/30 02:33:47;;;;;;;47.25;29.75;;;;;;;3.72;100.00;99161.78;5071341;28;20084;-79
2021/12/30 02:36:15;;;;;;;43.20;28.10;;;;;;;3.75;100.00;99159.97;5070431;28;20048;-79
2021/12/30 02:38:46;;;;;;;42.53;28.58;;;;;;;3.74;100.00;99157.41;5070127;28;20025;-80
2021/12/30 02:41:18;;;;;;;46.00;28.05;;;;;;;3.78;100.00;99160.75;5071583;28;20036;-79
2021/12/30 02:43:47;;;;;;;39.30;25.58;;;;;;;3.74;100.00;99165.97;5071418;28;20531;-80
2021/12/30 02:46:14;;;;;;;40.83;26.60;;;;;;;3.72;100.00;99160.03;5071721;28;20470;-79
2021/12/30 02:48:41;;;;;;;41.50;27.38;;;;;;;3.75;100.00;99167.69;5072299;28;20032;-80
2021/12/30 02:51:09;;;;;;;39.72;27.98;;;;;;;3.82;100.00;99167.50;5074146;28;20115;-79
2021/12/30 02:53:35;;;;;;;48.95;32.15;;;;;;;3.77;100.00;99162.47;5075320;28;20111;-79
2021/12/30 02:56:00;;;;;;;47.95;29.45;;;;;;;3.78;100.00;99151.28;5073576;28;20136;-79
2021/12/30 02:58:27;;;;;;;46.38;29.52;;;;;;;3.68;100.00;99142.13;5074847;28;20098;-79
2021/12/30 03:00:57;;;;;;;42.20;27.58;;;;;;;3.77;100.00;99159.91;5074974;28;20024;-79
2021/12/30 03:03:24;;;;;;;39.83;26.52;;;;;;;3.74;100.00;99152.25;5075208;28;20047;-79
2021/12/30 03:05:54;;;;;;;38.97;25.73;;;;;;;3.77;100.00;99147.03;5074973;28;20025;-79
2021/12/30 03:08:20;;;;;;;33.67;24.15;;;;;;;3.80;100.00;99162.41;5074965;28;20035;-79
2021/12/30 03:10:45;;;;;;;37.10;25.00;;;;;;;3.82;100.00;99158.03;5074987;28;20020;-80
2021/12/30 03:13:14;;;;;;;33.50;23.58;;;;;;;3.80;100.00;99152.09;5073599;28;20020;-80
2021/12/30 03:15:41;;;;;;;35.58;23.45;;;;;;;3.71;100.00;99139.47;5075053;28;20029;-79
2021/12/30 03:18:07;;;;;;;35.10;22.98;;;;;;;3.83;100.00;99156.31;5075000;28;20024;-80
2021/12/30 03:20:34;;;;;;;32.35;22.25;;;;;;;3.82;100.00;99152.91;5074814;28;20107;-79
2021/12/30 03:23:00;;;;;;;31.85;21.98;;;;;;;3.85;100.00;99155.41;5074519;28;20459;-80
2021/12/30 03:25:26;;;;;;;30.95;22.17;;;;;;;3.91;100.00;99178.41;5073422;28;20111;-79
2021/12/30 03:27:51;;;;;;;35.22;22.33;;;;;;;3.85;100.00;99159.72;5074422;28;20098;-79
2021/12/30 03:30:17;;;;;;;39.35;25.25;;;;;;;3.77;100.00;99161.66;5073499;28;20048;-79
2021/12/30 03:32:43;;;;;;;71.38;39.28;;;;;;;3.74;100.00;99168.56;5074566;28;20029;-80
2021/12/30 03:35:09;;;;;;;74.32;41.38;;;;;;;3.86;100.00;99187.16;5073368;28;20070;-80
2021/12/30 03:37:34;;;;;;;53.67;31.33;;;;;;;3.84;100.00;99176.06;5073104;28;20486;-80
2021/12/30 03:40:00;;;;;;;33.53;23.30;;;;;;;3.85;100.00;99181.16;5074220;28;20047;-80
2021/12/30 03:42:25;;;;;;;33.72;23.10;;;;;;;3.71;100.00;99153.19;5074206;28;20024;-80
2021/12/30 03:44:56;;;;;;;33.05;22.88;;;;;;;3.88;100.00;99175.94;5074229;28;20437;-79
2021/12/30 03:47:22;;;;;;;32.88;22.15;;;;;;;3.83;100.00;99162.31;5073089;28;20024;-79
2021/12/30 03:49:47;;;;;;;30.50;21.92;;;;;;;3.89;100.00;99187.06;5072812;28;20028;-79
2021/12/30 03:52:19;;;;;;;34.65;19.90;;;;;;;3.87;100.00;99183.69;5072905;28;20117;-79
2021/12/30 03:54:45;;;;;;;34.03;22.40;;;;;;;3.79;100.00;99168.44;5073861;28;20025;-79
2021/12/30 03:57:11;;;;;;;40.55;26.75;;;;;;;3.78;100.00;99171.91;5074364;28;20065;-79
2021/12/30 03:59:36;;;;;;;40.05;26.73;;;;;;;3.91;100.00;99193.03;5073287;28;20075;-79
2021/12/30 04:02:01;;;;;;;34.63;25.35;;;;;;;3.90;100.00;99201.63;5073862;28;20107;-80
2021/12/30 04:04:27;;;;;;;34.55;25.50;;;;;;;3.82;100.00;99186.38;5074300;28;20036;-79
2021/12/30 04:06:52;;;;;;;44.67;28.60;;;;;;;3.79;100.00;99183.03;5073714;28;20029;-80
2021/12/30 04:09:18;;;;;;;78.38;49.85;;;;;;;3.77;100.00;99175.38;5073778;28;20051;-79
2021/12/30 04:11:44;;;;;;;81.25;50.67;;;;;;;3.80;100.00;99187.31;5073680;28;20383;-80
2021/12/30 04:14:09;;;;;;;82.32;53.45;;;;;;;3.71;100.00;99178.97;5073971;28;20028;-79
2021/12/30 04:16:34;;;;;;;73.57;48.63;;;;;;;3.79;100.00;99199.34;5072529;28;20020;-80
2021/12/30 04:19:01;;;;;;;55.33;36.85;;;;;;;3.75;100.00;99193.44;5073501;28;20028;-80
2021/12/30 04:21:26;;;;;;;53.60;38.63;;;;;;;3.74;100.00;99185.75;5073550;28;20372;-79
2021/12/30 04:23:52;;;;;;;40.22;29.23;;;;;;;3.82;100.00;99199.25;5071835;28;20028;-79
2021/12/30 04:26:17;;;;;;;37.55;26.80;;;;;;;3.77;100.00;99183.09;5073475;28;20039;-79
2021/12/30 04:28:44;;;;;;;36.47;24.92;;;;;;;3.70;100.00;99176.41;5073985;28;20514;-79
2021/12/30 04:31:10;;;;;;;34.90;22.75;;;;;;;3.85;100.00;99200.94;5073359;28;20033;-80
2021/12/30 04:33:35;;;;;;;31.98;20.33;;;;;;;3.81;100.00;99195.00;5073500;28;20040;-80
2021/12/30 04:36:01;;;;;;;33.58;22.42;;;;;;;3.85;100.00;99194.03;5073178;28;20029;-80
2021/12/30 04:38:29;;;;;;;35.30;25.45;;;;;;;3.74;100.00;99175.44;5073199;28;20033;-79
2021/12/30 04:40:55;;;;;;;42.03;26.77;;;;;;;3.82;100.00;99199.25;5071875;28;20610;-79
2021/12/30 04:43:22;;;;;;;40.03;27.10;;;;;;;3.77;100.00;99188.25;5073436;28;20056;-79
2021/12/30 04:45:47;;;;;;;36.78;25.88;;;;;;;3.74;100.00;99186.56;5073159;28;20101;-79
2021/12/30 04:48:14;;;;;;;39.35;26.42;;;;;;;3.74;100.00;99184.00;5073330;28;20094;-79
2021/12/30 04:50:40;;;;;;;38.85;27.00;;;;;;;3.86;100.00;99208.59;5073124;28;20024;-80
2021/12/30 04:53:06;;;;;;;38.00;25.05;;;;;;;3.76;100.00;99194.28;5072572;28;20032;-79
2021/12/30 04:55:31;;;;;;;30.58;21.98;;;;;;;3.85;100.00;99213.81;5072917;28;20074;-80
2021/12/30 04:57:57;;;;;;;31.85;22.13;;;;;;;3.84;100.00;99209.53;5071344;28;20123;-80
2021/12/30 05:00:23;;;;;;;35.22;24.15;;;;;;;3.77;100.00;99202.84;5073264;28;20100;-80
2021/12/30 05:03:07;;;;;;;34.40;22.67;;;;;;;3.83;100.00;99231.84;5071314;28;20025;-80
2021/12/30 05:05:36;;;;;;;28.38;20.80;;;;;;;3.84;100.00;99235.31;5072772;28;20031;-80
2021/12/30 05:08:02;;;;;;;31.52;21.02;;;;;;;3.86;100.00;99242.09;5072702;28;20025;-80
2021/12/30 05:10:28;;;;;;;32.47;23.17;;;;;;;3.77;100.00;99213.16;5072955;28;20361;-80
2021/12/30 05:12:53;;;;;;;34.35;24.05;;;;;;;3.87;100.00;99227.47;5071248;28;20464;-79
2021/12/30 05:15:18;;;;;;;33.60;25.67;;;;;;;3.88;100.00;99237.75;5072631;28;20078;-79
2021/12/30 05:17:44;;;;;;;32.03;22.67;;;;;;;3.94;100.00;99247.06;5072553;28;20028;-80
2021/12/30 05:20:12;;;;;;;33.60;22.40;;;;;;;3.92;100.00;99249.69;5072154;28;20486;-79
2021/12/30 05:22:38;;;;;;;30.30;21.83;;;;;;;3.97;100.00;99254.72;5072436;28;20119;-80
2021/12/30 05:25:04;;;;;;;34.00;22.10;;;;;;;3.97;100.00;99259.88;5072188;28;20531;-79
2021/12/30 05:27:30;;;;;;;35.42;22.23;;;;;;;3.83;100.00;99224.13;5071177;28;20377;-79
2021/12/30 05:29:55;;;;;;;28.17;20.42;;;;;;;3.97;100.00;99246.97;5070881;28;20028;-80
2021/12/30 05:32:21;;;;;;;28.33;19.70;;;;;;;3.97;100.00;99240.09;5071080;28;20058;-79
2021/12/30 05:34:46;;;;;;;33.83;25.42;;;;;;;3.95;100.00;99239.28;5070886;28;20060;-79
2021/12/30 05:37:11;;;;;;;35.72;25.73;;;;;;;3.89;100.00;99221.41;5071937;28;20028;-80
2021/12/30 05:39:41;;;;;;;33.55;23.38;;;;;;;3.96;100.00;99242.69;5072416;28;20476;-80
2021/12/30 05:42:06;;;;;;;30.17;21.13;;;;;;;3.93;100.00;99240.22;5070648;28;20021;-80
2021/12/30 05:44:32;;;;;;;29.58;19.98;;;;;;;3.98;100.00;99253.81;5072174;28;20021;-80
2021/12/30 05:46:57;;;;;;;30.45;20.08;;;;;;;3.98;100.00;99253.81;5071944;28;20483;-80
2021/12/30 05:49:22;;;;;;;25.83;19.00;;;;;;;3.97;100.00;99247.81;5072044;28;20060;-80
2021/12/30 05:51:48;;;;;;;27.13;19.23;;;;;;;3.96;100.00;99243.56;5070980;28;20484;-80
2021/12/30 05:54:13;;;;;;;27.65;18.55;;;;;;;3.96;100.00;99247.84;5070673;28;20360;-80
2021/12/30 05:56:39;;;;;;;28.67;20.70;;;;;;;4.03;100.00;99253.69;5070946;28;20025;-80
2021/12/30 05:59:04;;;;;;;28.50;20.63;;;;;;;4.03;100.00;99257.09;5071628;28;20048;-79
2021/12/30 06:01:29;;;;;;;25.20;18.92;;;;;;;4.01;100.00;99258.91;5071927;28;20020;-79
2021/12/30 06:03:55;;;;;;;27.23;19.25;;;;;;;3.93;100.00;99232.47;5071962;28;20488;-79
2021/12/30 06:06:20;;;;;;;27.48;19.70;;;;;;;3.99;100.00;99235.72;5069858;28;20048;-79
2021/12/30 06:08:46;;;;;;;26.05;19.35;;;;;;;4.10;100.00;99250.91;5071947;28;20060;-79
2021/12/30 06:11:11;;;;;;;24.52;18.33;;;;;;;4.07;100.00;99263.88;5070493;28;20395;-79
2021/12/30 06:13:36;;;;;;;24.83;18.73;;;;;;;3.98;100.00;99256.41;5072154;28;20028;-79
2021/12/30 06:16:02;;;;;;;24.60;18.55;;;;;;;3.99;100.00;99258.91;5071501;28;20044;-79
2021/12/30 06:18:27;;;;;;;28.13;18.73;;;;;;;4.00;100.00;99268.38;5072058;28;20033;-79
2021/12/30 06:20:53;;;;;;;29.00;19.23;;;;;;;4.00;100.00;99268.38;5071393;28;20107;-79
2021/12/30 06:23:18;;;;;;;30.15;21.40;;;;;;;4.07;100.00;99276.75;5072190;28;20539;-79
2021/12/30 06:25:43;;;;;;;30.63;20.83;;;;;;;3.99;100.00;99266.66;5075734;28;20025;-79
2021/12/30 06:28:09;;;;;;;33.22;21.48;;;;;;;4.05;100.00;99275.97;5075671;28;20107;-79
2021/12/30 06:30:34;;;;;;;35.88;23.23;;;;;;;4.04;100.00;99288.88;5074494;28;20028;-79
2021/12/30 06:32:59;;;;;;;35.80;24.50;;;;;;;3.99;100.00;99279.53;5075653;28;20038;-79
2021/12/30 06:35:31;;;;;;;33.05;24.42;;;;;;;4.04;100.00;99289.72;5075915;28;20021;-79
2021/12/30 06:37:57;;;;;;;33.05;23.40;;;;;;;4.05;100.00;99283.69;5074092;28;20046;-79
2021/12/30 06:40:22;;;;;;;34.63;26.35;;;;;;;3.95;100.00;99259.03;5074275;28;20029;-79
2021/12/30 06:42:47;;;;;;;32.80;24.48;;;;;;;4.05;100.00;99285.44;5075447;28;20047;-79
2021/12/30 06:45:13;;;;;;;30.40;24.08;;;;;;;4.05;100.00;99291.44;5074008;28;20032;-79
2021/12/30 06:47:38;;;;;;;36.22;26.33;;;;;;;4.02;100.00;99288.94;5074101;28;20025;-79
2021/12/30 06:50:04;;;;;;;31.20;24.83;;;;;;;3.92;100.00;99277.19;5074942;28;20031;-79
2021/12/30 06:52:30;;;;;;;29.70;23.15;;;;;;;4.02;100.00;99294.09;5075456;28;20028;-79
2021/12/30 06:54:56;;;;;;;33.15;25.55;;;;;;;4.02;100.00;99294.09;5073831;28;20384;-79
2021/12/30 06:57:21;;;;;;;36.78;26.85;;;;;;;3.89;100.00;99275.50;5075523;28;20032;-79
2021/12/30 06:59:47;;;;;;;33.95;26.67;;;;;;;3.98;100.00;99295.03;5052576;28;20452;-79
2021/12/30 07:02:14;;;;;;;37.13;27.65;;;;;;;4.00;100.00;99294.13;5035583;28;20197;-80
2021/12/30 07:04:39;;;;;;;32.10;25.42;;;;;;;4.00;100.00;99306.16;5052897;28;20127;-80
2021/12/30 07:07:05;;;;;;;32.72;24.17;;;;;;;4.01;100.00;99294.97;5052640;28;20033;-79
2021/12/30 07:09:30;;;;;;;36.33;25.65;;;;;;;3.98;100.00;99298.47;5052610;28;20508;-80
2021/12/30 07:11:56;;;;;;;41.72;29.83;;;;;;;3.95;100.00;99292.53;5052597;28;20036;-79
2021/12/30 07:14:22;;;;;;;40.30;26.77;;;;;;;3.97;100.00;99286.47;5012648;28;20045;-80
2021/12/30 07:16:48;;;;;;;37.65;25.55;;;;;;;4.12;100.00;99311.00;5012875;28;20034;-80
2021/12/30 07:19:14;;;;;;;33.13;24.13;;;;;;;4.16;100.00;99309.19;5012305;28;20551;-80
2021/12/30 07:21:40;;;;;;;27.65;20.67;;;;;;;4.18;100.00;99310.84;4995964;28;20022;-80
2021/12/30 07:24:06;;;;;;;28.48;20.17;;;;;;;4.09;100.00;99300.78;5012276;28;20508;-80
2021/12/30 07:26:31;;;;;;;30.33;21.90;;;;;;;4.18;100.00;99321.16;4996052;28;20042;-80
2021/12/30 07:28:57;;;;;;;29.02;20.00;;;;;;;4.23;100.00;99321.88;5012307;28;20046;-80
2021/12/30 07:31:23;;;;;;;44.13;29.23;;;;;;;4.21;100.00;99318.50;5010753;28;20034;-80
2021/12/30 07:33:48;;;;;;;60.95;37.45;;;;;;;4.27;100.00;99320.06;5031400;28;20745;-80
2021/12/30 07:36:13;;;;;;;56.35;37.33;;;;;;;4.32;100.00;99323.38;5031176;28;20061;-80
2021/12/30 07:38:39;;;;;;;43.85;30.65;;;;;;;4.32;100.00;99335.41;5032191;28;20480;-80
2021/12/30 07:41:04;;;;;;;34.65;24.95;;;;;;;4.17;100.00;99308.28;5031689;28;20037;-80
2021/12/30 07:43:31;;;;;;;30.27;22.50;;;;;;;4.30;100.00;99332.00;5031795;28;20033;-80
2021/12/30 07:45:57;;;;;;;30.70;21.20;;;;;;;4.29;100.00;99331.16;5063239;28;20036;-80
2021/12/30 07:48:22;;;;;;;25.55;18.63;;;;;;;4.37;100.00;99349.03;5073125;28;20028;-80
2021/12/30 07:50:49;;;;;;;27.05;18.67;;;;;;;4.18;100.00;99320.31;5072994;28;20036;-80
2021/12/30 07:53:15;;;;;;;28.15;19.60;;;;;;;4.36;100.00;99347.34;5073786;28;20031;-80
2021/12/30 07:55:41;;;;;;;25.73;16.85;;;;;;;4.29;100.00;99325.16;5074301;28;20410;-80
2021/12/30 07:58:06;;;;;;;34.28;20.42;;;;;;;4.42;100.00;99345.44;5073908;28;20075;-80
2021/12/30 08:00:32;;;;;;;30.20;20.60;;;;;;;4.42;100.00;99345.44;5073983;28;20032;-80
2021/12/30 08:02:57;;;;;;;27.00;18.83;;;;;;;4.47;100.00;99353.06;5073709;28;20464;-79
2021/12/30 08:05:23;;;;;;;28.02;17.98;;;;;;;4.42;100.00;99348.00;5073911;28;20085;-80
2021/12/30 08:07:49;;;;;;;27.42;19.38;;;;;;;4.29;100.00;99323.44;5073886;28;20029;-80
2021/12/30 08:10:18;;;;;;;39.20;24.20;;;;;;;4.45;100.00;99341.94;5073461;28;20445;-80
2021/12/30 08:12:45;;;;;;;38.90;23.33;;;;;;;4.51;100.00;99357.25;5072389;28;20036;-80
2021/12/30 08:15:12;;;;;;;33.13;21.02;;;;;;;4.52;100.00;99350.38;5073586;28;20033;-80
2021/12/30 08:17:39;;;;;;;30.63;21.30;;;;;;;4.56;100.00;99354.56;5073588;28;20465;-80
2021/12/30 08:20:06;;;;;;;32.13;22.55;;;;;;;4.56;100.00;99349.41;5073597;28;20059;-80
2021/12/30 08:22:32;;;;;;;33.53;22.65;;;;;;;4.60;100.00;99358.75;5073657;28;20112;-80
2021/12/30 08:24:57;;;;;;;36.15;25.33;;;;;;;4.62;100.00;99362.97;5073350;28;20031;-80
2021/12/30 08:27:23;;;;;;;43.70;27.92;;;;;;;4.61;100.00;99361.28;5073409;28;20446;-80
2021/12/30 08:29:48;;;;;;;45.63;28.88;;;;;;;4.59;100.00;99355.28;5073292;28;20036;-80
2021/12/30 08:32:16;;;;;;;42.97;28.83;;;;;;;4.54;100.00;99351.16;5072967;28;20021;-80
2021/12/30 08:34:43;;;;;;;45.83;28.80;;;;;;;4.68;100.00;99377.44;5072295;28;20082;-80
2021/12/30 08:37:10;;;;;;;43.35;28.85;;;;;;;4.68;100.00;99374.88;5073243;28;20025;-80
2021/12/30 08:39:36;;;;;;;44.25;28.75;;;;;;;4.70;100.00;99363.59;5073361;28;20029;-80
2021/12/30 08:42:04;;;;;;;42.20;26.77;;;;;;;4.74;100.00;99356.63;5072948;28;20380;-80
2021/12/30 08:44:29;;;;;;;38.78;25.10;;;;;;;4.80;100.00;99369.34;5073101;28;20028;-80
2021/12/30 08:46:56;;;;;;;36.88;25.13;;;;;;;4.82;100.00;99366.75;5072899;28;20396;-80
2021/12/30 08:49:23;;;;;;;34.88;23.85;;;;;;;4.91;100.00;99377.66;5071856;28;20020;-80
2021/12/30 08:51:49;;;;;;;37.13;23.20;;;;;;;4.81;100.00;99355.56;5073307;28;20376;-80
2021/12/30 08:54:16;;;;;;;32.42;21.40;;;;;;;4.83;100.00;99358.94;5072749;28;20025;-80
2021/12/30 08:56:41;;;;;;;30.55;20.60;;;;;;;4.91;100.00;99380.22;5072957;28;20121;-80
2021/12/30 08:59:07;;;;;;;28.40;19.42;;;;;;;4.94;100.00;99371.56;5071244;28;20502;-80
2021/12/30 09:01:32;;;;;;;37.53;22.95;;;;;;;4.99;100.00;99377.44;5072947;28;20024;-80
2021/12/30 09:03:57;;;;;;;33.53;22.08;;;;;;;4.92;100.00;99356.09;5073105;28;20384;-80
2021/12/30 09:06:24;;;;;;;31.25;20.08;;;;;;;4.93;100.00;99362.09;5072904;28;20024;-80
2021/12/30 09:08:50;;;;;;;30.65;19.90;;;;;;;4.97;100.00;99380.06;5072765;28;20078;-80
2021/12/30 09:11:15;;;;;;;34.80;21.63;;;;;;;5.03;100.00;99380.78;5072474;28;20020;-80
2021/12/30 09:13:41;;;;;;;32.33;21.90;;;;;;;5.00;100.00;99376.53;5071067;28;20029;-79
2021/12/30 09:16:07;;;;;;;33.42;22.55;;;;;;;5.10;100.00;99401.22;5072525;28;20495;-80
2021/12/30 09:18:33;;;;;;;35.47;23.48;;;;;;;5.15;100.00;99395.91;5072655;28;20081;-80
2021/12/30 09:20:58;;;;;;;34.78;22.60;;;;;;;4.99;100.00;99372.28;5071999;28;20028;-80
2021/12/30 09:23:24;;;;;;;31.90;21.33;;;;;;;5.17;100.00;99397.56;5071073;28;20108;-80
2021/12/30 09:25:49;;;;;;;36.10;23.17;;;;;;;5.06;100.00;99373.78;5072412;28;20358;-80
2021/12/30 09:28:15;;;;;;;43.40;26.30;;;;;;;5.26;100.00;99396.44;5071966;28;20541;-80
2021/12/30 09:30:43;;;;;;;39.53;25.23;;;;;;;5.22;100.00;99387.97;5071143;28;20056;-80
2021/12/30 09:33:09;;;;;;;41.30;27.13;;;;;;;5.23;100.00;99384.47;5072200;28;20029;-80
2021/12/30 09:35:35;;;;;;;36.47;24.20;;;;;;;5.32;100.00;99392.84;5072308;28;20028;-80
2021/12/30 09:38:01;;;;;;;42.13;26.15;;;;;;;5.23;100.00;99387.06;5070646;28;20032;-80
2021/12/30 09:40:28;;;;;;;44.03;31.90;;;;;;;5.39;100.00;99407.25;5070703;28;20036;-80
2021/12/30 09:43:01;;;;;;;46.25;31.17;;;;;;;5.31;100.00;99385.97;5072034;28;20064;-80
2021/12/30 09:45:29;;;;;;;44.30;29.05;;;;;;;5.43;100.00;99401.94;5070970;28;20025;-80
2021/12/30 09:47:56;;;;;;;35.25;25.20;;;;;;;5.42;100.00;99394.25;5072031;28;20086;-80
2021/12/30 09:50:31;;;;;;;37.35;26.10;;;;;;;5.41;100.00;99379.66;5072164;28;20063;-80
2021/12/30 09:53:01;;;;;;;31.73;24.50;;;;;;;5.33;100.00;99366.97;5071364;28;20605;-80
2021/12/30 09:55:27;;;;;;;30.35;21.40;;;;;;;5.54;100.00;99378.41;5070685;28;20024;-80
2021/12/30 09:57:53;;;;;;;35.78;27.95;;;;;;;5.58;100.00;99390.31;5069968;28;20071;-80
2021/12/30 10:00:19;;;;;;;41.30;30.70;;;;;;;5.63;100.00;99385.84;5072345;28;20039;-80
2021/12/30 10:02:46;;;;;;;46.13;31.30;;;;;;;5.76;100.00;99391.50;5071912;28;20047;-80
2021/12/30 10:05:14;;;;;;;44.38;29.25;;;;;;;5.86;100.00;99379.16;5070441;28;20064;-80
2021/12/30 10:07:41;;;;;;;44.43;30.33;;;;;;;5.86;100.00;99358.47;5071758;28;20053;-80
2021/12/30 10:10:28;;;;;;;40.63;28.02;;;;;;;5.99;100.00;99364.97;5071840;28;20029;-80
2021/12/30 10:12:54;;;;;;;37.78;26.38;;;;;;;6.17;100.00;99376.44;5070645;28;20028;-80
2021/12/30 10:15:24;;;;;;;36.13;25.35;;;;;;;6.28;100.00;99383.81;5079937;28;20024;-80
2021/12/30 10:18:00;;;;;;;33.35;22.92;;;;;;;6.33;100.00;99374.19;5085500;28;20105;-80
2021/12/30 10:20:30;;;;;;;29.70;21.88;;;;;;;6.45;100.00;99389.31;5071526;28;20040;-80
2021/12/30 10:23:23;;;;;;;30.60;21.17;;;;;;;6.52;100.00;99383.00;5084579;28;20025;-80
2021/12/30 10:25:58;;;;;;;27.85;20.80;;;;;;;6.46;100.00;99373.72;5089515;28;20086;-80
2021/12/30 10:28:26;;;;;;;26.08;19.92;;;;;;;6.63;100.00;99395.59;5089312;28;20040;-80
2021/12/30 10:31:00;;;;;;;39.50;27.45;;;;;;;6.66;100.00;99390.31;5063996;28;20499;-80
2021/12/30 10:33:28;;;;;;;35.47;27.10;;;;;;;6.68;100.00;99389.34;5069129;28;20029;-80
2021/12/30 10:35:55;;;;;;;37.50;27.38;;;;;;;6.78;100.00;99405.38;5068904;28;20193;-80
2021/12/30 10:38:22;;;;;;;39.85;29.95;;;;;;;6.69;100.00;99393.63;5069116;28;20029;-80
2021/12/30 10:40:51;;;;;;;38.83;28.67;;;;;;;6.75;100.00;99406.34;5068943;28;20111;-80
2021/12/30 10:43:47;;;;;;;35.90;28.10;;;;;;;6.84;100.00;99412.13;5068696;28;20037;-80
2021/12/30 10:46:26;;;;;;;67.90;46.45;;;;;;;6.90;100.00;99411.88;5052057;28;20032;-79
2021/12/30 10:49:08;;;;;;;65.30;43.13;;;;;;;6.94;100.00;99422.06;5068618;28;20553;-80
2021/12/30 10:51:40;;;;;;;57.00;39.92;;;;;;;6.95;100.00;99417.72;5069040;28;20484;-80
2021/12/30 10:54:25;;;;;;;83.32;57.40;;;;;;;6.97;100.00;99413.38;5068809;28;20036;-80
2021/12/30 10:57:02;;;;;;;100.35;67.72;;;;;;;6.95;100.00;99405.66;5052139;28;20422;-80
2021/12/30 10:59:29;;;;;;;97.63;64.53;;;;;;;6.98;100.00;99402.94;5068664;28;20159;-79
2021/12/30 11:02:01;;;;;;;68.45;43.75;;;;;;;7.05;100.00;99408.75;5051629;28;20047;-80
2021/12/30 11:04:40;;;;;;;57.42;37.60;;;;;;;7.11;100.00;99410.28;5068810;28;20411;-80
2021/12/30 11:07:07;;;;;;;72.85;45.53;;;;;;;7.06;100.00;99402.66;5068577;28;20028;-80
2021/12/30 11:09:33;;;;;;;70.72;42.13;;;;;;;7.12;100.00;99405.06;5070550;28;20055;-80
2021/12/30 11:12:03;;;;;;;62.60;37.92;;;;;;;7.09;100.00;99393.97;5072337;28;20123;-80
2021/12/30 11:14:31;;;;;;;38.05;26.02;;;;;;;7.05;100.00;99379.44;5072371;28;20420;-80
2021/12/30 11:17:14;;;;;;;60.67;37.58;;;;;;;7.18;100.00;99411.75;5072178;28;20150;-80